sensor_id;sensor_type;location;lat;lon;timestamp;P1;durP1;ratioP1;P2;durP2;ratioP2
47896;SDS011;39629;51.400;5.494;2024-01-16T00:03:21;5.80;;;2.22;;
47896;SDS011;39629;51.400;5.494;2024-01-16T00:08:23;3.72;;;2.10;;
47896;SDS011;39629;51.400;5.494;2024-01-16T00:13:25;7.88;;;2.30;;
47896;SDS011;39629;51.400;5.494;2024-01-16T00:18:28;6.45;;;2.47;;
47896;SDS011;39629;51.400;5.494;2024-01-16T00:23:29;6.68;;;3.00;;
47896;SDS011;39629;51.400;5.494;2024-01-16T00:28:32;6.55;;;3.10;;
47896;SDS011;39629;51.400;5.494;2024-01-16T00:33:35;6.85;;;3.00;;
47896;SDS011;39629;51.400;5.494;2024-01-16T00:38:37;6.55;;;3.10;;
47896;SDS011;39629;51.400;5.494;2024-01-16T00:43:39;6.07;;;2.80;;
47896;SDS011;39629;51.400;5.494;2024-01-16T00:48:42;6.65;;;3.03;;
47896;SDS011;39629;51.400;5.494;2024-01-16T00:53:44;7.00;;;2.92;;
47896;SDS011;39629;51.400;5.494;2024-01-16T00:58:45;10.40;;;2.83;;
47896;SDS011;39629;51.400;5.494;2024-01-16T01:03:48;6.78;;;2.33;;
47896;SDS011;39629;51.400;5.494;2024-01-16T01:08:50;6.85;;;2.50;;
47896;SDS011;39629;51.400;5.494;2024-01-16T01:13:52;5.72;;;2.78;;
47896;SDS011;39629;51.400;5.494;2024-01-16T01:18:55;8.57;;;2.40;;
47896;SDS011;39629;51.400;5.494;2024-01-16T01:23:57;6.53;;;2.20;;
47896;SDS011;39629;51.400;5.494;2024-01-16T01:28:58;5.90;;;2.47;;
47896;SDS011;39629;51.400;5.494;2024-01-16T01:34:01;5.10;;;2.30;;
47896;SDS011;39629;51.400;5.494;2024-01-16T01:39:04;4.28;;;1.80;;
47896;SDS011;39629;51.400;5.494;2024-01-16T01:44:06;2.88;;;1.27;;
47896;SDS011;39629;51.400;5.494;2024-01-16T01:49:16;4.18;;;1.27;;
47896;SDS011;39629;51.400;5.494;2024-01-16T01:54:18;2.88;;;1.45;;
47896;SDS011;39629;51.400;5.494;2024-01-16T01:59:20;2.25;;;1.10;;
47896;SDS011;39629;51.400;5.494;2024-01-16T02:04:25;3.80;;;1.02;;
47896;SDS011;39629;51.400;5.494;2024-01-16T02:09:29;1.85;;;0.80;;
47896;SDS011;39629;51.400;5.494;2024-01-16T02:14:30;2.80;;;0.70;;
47896;SDS011;39629;51.400;5.494;2024-01-16T02:19:33;4.50;;;0.70;;
47896;SDS011;39629;51.400;5.494;2024-01-16T02:24:36;2.95;;;1.00;;
47896;SDS011;39629;51.400;5.494;2024-01-16T02:29:40;1.67;;;0.80;;
47896;SDS011;39629;51.400;5.494;2024-01-16T02:34:42;3.08;;;1.10;;
47896;SDS011;39629;51.400;5.494;2024-01-16T02:39:45;2.60;;;0.90;;
47896;SDS011;39629;51.400;5.494;2024-01-16T02:44:47;3.65;;;0.80;;
47896;SDS011;39629;51.400;5.494;2024-01-16T02:49:49;4.55;;;1.17;;
47896;SDS011;39629;51.400;5.494;2024-01-16T02:54:52;4.25;;;1.00;;
47896;SDS011;39629;51.400;5.494;2024-01-16T02:59:53;4.72;;;0.90;;
47896;SDS011;39629;51.400;5.494;2024-01-16T03:04:55;2.00;;;1.00;;
47896;SDS011;39629;51.400;5.494;2024-01-16T03:09:58;2.50;;;1.20;;
47896;SDS011;39629;51.400;5.494;2024-01-16T03:14:59;5.32;;;1.63;;
47896;SDS011;39629;51.400;5.494;2024-01-16T03:20:01;4.63;;;1.70;;
47896;SDS011;39629;51.400;5.494;2024-01-16T03:25:05;7.35;;;2.95;;
47896;SDS011;39629;51.400;5.494;2024-01-16T03:30:09;9.20;;;3.25;;
47896;SDS011;39629;51.400;5.494;2024-01-16T03:35:10;8.13;;;3.15;;
47896;SDS011;39629;51.400;5.494;2024-01-16T03:40:14;8.30;;;3.78;;
47896;SDS011;39629;51.400;5.494;2024-01-16T03:45:15;10.00;;;4.05;;
47896;SDS011;39629;51.400;5.494;2024-01-16T03:50:17;10.82;;;4.30;;
47896;SDS011;39629;51.400;5.494;2024-01-16T03:55:20;8.25;;;3.45;;
47896;SDS011;39629;51.400;5.494;2024-01-16T04:00:22;10.50;;;3.75;;
47896;SDS011;39629;51.400;5.494;2024-01-16T04:05:23;9.13;;;3.30;;
47896;SDS011;39629;51.400;5.494;2024-01-16T04:10:26;8.10;;;3.13;;
47896;SDS011;39629;51.400;5.494;2024-01-16T04:15:28;9.43;;;3.80;;
47896;SDS011;39629;51.400;5.494;2024-01-16T04:20:30;10.70;;;3.08;;
47896;SDS011;39629;51.400;5.494;2024-01-16T04:25:33;7.47;;;3.25;;
47896;SDS011;39629;51.400;5.494;2024-01-16T04:30:35;8.52;;;3.20;;
47896;SDS011;39629;51.400;5.494;2024-01-16T04:35:37;11.38;;;3.08;;
47896;SDS011;39629;51.400;5.494;2024-01-16T04:40:40;9.07;;;3.10;;
47896;SDS011;39629;51.400;5.494;2024-01-16T04:45:41;11.10;;;3.10;;
47896;SDS011;39629;51.400;5.494;2024-01-16T04:50:43;7.70;;;2.85;;
47896;SDS011;39629;51.400;5.494;2024-01-16T04:55:47;6.90;;;2.72;;
47896;SDS011;39629;51.400;5.494;2024-01-16T05:00:48;11.07;;;2.90;;
47896;SDS011;39629;51.400;5.494;2024-01-16T05:05:50;7.10;;;2.60;;
47896;SDS011;39629;51.400;5.494;2024-01-16T05:10:53;6.72;;;2.65;;
47896;SDS011;39629;51.400;5.494;2024-01-16T05:15:54;8.88;;;3.00;;
47896;SDS011;39629;51.400;5.494;2024-01-16T05:20:56;7.25;;;2.70;;
47896;SDS011;39629;51.400;5.494;2024-01-16T05:25:59;5.82;;;2.50;;
47896;SDS011;39629;51.400;5.494;2024-01-16T05:31:01;5.78;;;2.50;;
47896;SDS011;39629;51.400;5.494;2024-01-16T05:36:03;6.97;;;2.90;;
47896;SDS011;39629;51.400;5.494;2024-01-16T05:41:06;9.30;;;2.60;;
47896;SDS011;39629;51.400;5.494;2024-01-16T05:46:08;9.07;;;2.58;;
47896;SDS011;39629;51.400;5.494;2024-01-16T05:51:10;7.28;;;2.70;;
47896;SDS011;39629;51.400;5.494;2024-01-16T05:56:13;6.35;;;2.35;;
47896;SDS011;39629;51.400;5.494;2024-01-16T06:01:14;7.60;;;2.35;;
47896;SDS011;39629;51.400;5.494;2024-01-16T06:06:16;9.20;;;2.40;;
47896;SDS011;39629;51.400;5.494;2024-01-16T06:11:22;6.88;;;2.70;;
47896;SDS011;39629;51.400;5.494;2024-01-16T06:16:31;6.78;;;2.55;;
47896;SDS011;39629;51.400;5.494;2024-01-16T06:21:32;5.72;;;2.20;;
47896;SDS011;39629;51.400;5.494;2024-01-16T06:26:35;7.70;;;2.65;;
47896;SDS011;39629;51.400;5.494;2024-01-16T06:31:37;5.35;;;2.72;;
47896;SDS011;39629;51.400;5.494;2024-01-16T06:36:39;6.90;;;2.42;;
47896;SDS011;39629;51.400;5.494;2024-01-16T06:41:42;7.85;;;2.33;;
47896;SDS011;39629;51.400;5.494;2024-01-16T06:46:43;6.60;;;2.22;;
47896;SDS011;39629;51.400;5.494;2024-01-16T06:51:45;6.70;;;2.35;;
47896;SDS011;39629;51.400;5.494;2024-01-16T06:56:48;11.25;;;2.50;;
47896;SDS011;39629;51.400;5.494;2024-01-16T07:01:50;7.95;;;2.55;;
47896;SDS011;39629;51.400;5.494;2024-01-16T07:06:51;7.28;;;2.50;;
47896;SDS011;39629;51.400;5.494;2024-01-16T07:11:54;9.27;;;2.97;;
47896;SDS011;39629;51.400;5.494;2024-01-16T07:16:56;8.13;;;2.35;;
47896;SDS011;39629;51.400;5.494;2024-01-16T07:21:57;7.63;;;2.45;;
47896;SDS011;39629;51.400;5.494;2024-01-16T07:27:00;7.93;;;2.30;;
47896;SDS011;39629;51.400;5.494;2024-01-16T07:32:03;8.20;;;2.80;;
47896;SDS011;39629;51.400;5.494;2024-01-16T07:37:05;9.13;;;3.25;;
47896;SDS011;39629;51.400;5.494;2024-01-16T07:42:08;6.50;;;2.83;;
47896;SDS011;39629;51.400;5.494;2024-01-16T07:47:10;8.15;;;2.55;;
47896;SDS011;39629;51.400;5.494;2024-01-16T07:52:11;10.25;;;2.83;;
47896;SDS011;39629;51.400;5.494;2024-01-16T07:57:14;11.55;;;2.92;;
47896;SDS011;39629;51.400;5.494;2024-01-16T08:02:16;8.20;;;2.92;;
47896;SDS011;39629;51.400;5.494;2024-01-16T08:07:18;6.75;;;2.60;;
47896;SDS011;39629;51.400;5.494;2024-01-16T08:12:21;7.68;;;2.70;;
47896;SDS011;39629;51.400;5.494;2024-01-16T08:17:23;13.18;;;3.17;;
47896;SDS011;39629;51.400;5.494;2024-01-16T08:22:24;7.68;;;3.03;;
47896;SDS011;39629;51.400;5.494;2024-01-16T08:27:27;7.80;;;2.75;;
47896;SDS011;39629;51.400;5.494;2024-01-16T08:32:29;7.65;;;3.17;;
47896;SDS011;39629;51.400;5.494;2024-01-16T08:37:31;10.93;;;3.10;;
47896;SDS011;39629;51.400;5.494;2024-01-16T08:42:34;7.97;;;2.95;;
47896;SDS011;39629;51.400;5.494;2024-01-16T08:47:36;9.45;;;2.53;;
47896;SDS011;39629;51.400;5.494;2024-01-16T08:52:37;7.70;;;2.70;;
47896;SDS011;39629;51.400;5.494;2024-01-16T08:57:40;6.85;;;3.53;;
47896;SDS011;39629;51.400;5.494;2024-01-16T09:02:42;6.53;;;2.88;;
47896;SDS011;39629;51.400;5.494;2024-01-16T09:07:44;6.95;;;3.20;;
47896;SDS011;39629;51.400;5.494;2024-01-16T09:12:47;8.23;;;2.97;;
47896;SDS011;39629;51.400;5.494;2024-01-16T09:17:49;7.22;;;3.00;;
47896;SDS011;39629;51.400;5.494;2024-01-16T09:22:50;9.30;;;2.88;;
47896;SDS011;39629;51.400;5.494;2024-01-16T09:27:53;11.93;;;3.10;;
47896;SDS011;39629;51.400;5.494;2024-01-16T09:32:55;6.90;;;3.20;;
47896;SDS011;39629;51.400;5.494;2024-01-16T09:37:57;9.73;;;3.33;;
47896;SDS011;39629;51.400;5.494;2024-01-16T09:43:00;8.75;;;3.30;;
47896;SDS011;39629;51.400;5.494;2024-01-16T09:48:02;12.35;;;3.63;;
47896;SDS011;39629;51.400;5.494;2024-01-16T09:53:05;10.88;;;3.58;;
47896;SDS011;39629;51.400;5.494;2024-01-16T09:58:08;9.00;;;3.90;;
47896;SDS011;39629;51.400;5.494;2024-01-16T10:03:14;10.23;;;3.55;;
47896;SDS011;39629;51.400;5.494;2024-01-16T10:08:17;8.15;;;3.38;;
47896;SDS011;39629;51.400;5.494;2024-01-16T10:13:23;6.60;;;3.35;;
47896;SDS011;39629;51.400;5.494;2024-01-16T10:18:25;8.82;;;3.72;;
47896;SDS011;39629;51.400;5.494;2024-01-16T10:23:28;7.38;;;2.72;;
47896;SDS011;39629;51.400;5.494;2024-01-16T10:28:34;9.73;;;3.63;;
47896;SDS011;39629;51.400;5.494;2024-01-16T10:33:36;8.43;;;3.57;;
47896;SDS011;39629;51.400;5.494;2024-01-16T10:38:39;9.45;;;2.83;;
47896;SDS011;39629;51.400;5.494;2024-01-16T10:43:43;14.52;;;3.40;;
47896;SDS011;39629;51.400;5.494;2024-01-16T10:49:01;11.93;;;3.75;;
47896;SDS011;39629;51.400;5.494;2024-01-16T10:54:04;9.55;;;3.60;;
47896;SDS011;39629;51.400;5.494;2024-01-16T10:59:10;8.93;;;3.35;;
47896;SDS011;39629;51.400;5.494;2024-01-16T11:04:18;9.68;;;3.05;;
47896;SDS011;39629;51.400;5.494;2024-01-16T11:09:21;11.52;;;3.90;;
47896;SDS011;39629;51.400;5.494;2024-01-16T11:14:24;8.27;;;3.72;;
47896;SDS011;39629;51.400;5.494;2024-01-16T11:19:26;8.10;;;3.47;;
47896;SDS011;39629;51.400;5.494;2024-01-16T11:24:29;9.02;;;3.63;;
47896;SDS011;39629;51.400;5.494;2024-01-16T11:29:35;6.78;;;3.33;;
47896;SDS011;39629;51.400;5.494;2024-01-16T11:34:52;8.43;;;3.88;;
47896;SDS011;39629;51.400;5.494;2024-01-16T11:50:54;21.92;;;4.30;;
47896;SDS011;39629;51.400;5.494;2024-01-16T11:55:57;11.27;;;3.50;;
47896;SDS011;39629;51.400;5.494;2024-01-16T12:01:27;9.50;;;3.78;;
47896;SDS011;39629;51.400;5.494;2024-01-16T12:06:30;9.73;;;3.92;;
47896;SDS011;39629;51.400;5.494;2024-01-16T12:11:32;11.00;;;4.18;;
47896;SDS011;39629;51.400;5.494;2024-01-16T12:16:35;9.43;;;3.95;;
47896;SDS011;39629;51.400;5.494;2024-01-16T12:21:38;9.75;;;3.63;;
47896;SDS011;39629;51.400;5.494;2024-01-16T12:26:40;11.38;;;3.65;;
47896;SDS011;39629;51.400;5.494;2024-01-16T12:31:43;11.05;;;3.50;;
47896;SDS011;39629;51.400;5.494;2024-01-16T12:36:45;6.60;;;3.28;;
47896;SDS011;39629;51.400;5.494;2024-01-16T12:41:47;8.27;;;3.35;;
47896;SDS011;39629;51.400;5.494;2024-01-16T12:46:54;10.70;;;3.72;;
47896;SDS011;39629;51.400;5.494;2024-01-16T12:52:17;8.98;;;3.35;;
47896;SDS011;39629;51.400;5.494;2024-01-16T12:57:21;7.95;;;3.38;;
47896;SDS011;39629;51.400;5.494;2024-01-16T13:02:25;9.02;;;3.25;;
47896;SDS011;39629;51.400;5.494;2024-01-16T13:07:26;6.15;;;2.75;;
47896;SDS011;39629;51.400;5.494;2024-01-16T13:12:30;8.60;;;3.30;;
47896;SDS011;39629;51.400;5.494;2024-01-16T13:17:35;6.63;;;3.00;;
47896;SDS011;39629;51.400;5.494;2024-01-16T13:22:36;7.88;;;2.90;;
47896;SDS011;39629;51.400;5.494;2024-01-16T13:27:38;7.95;;;3.10;;
47896;SDS011;39629;51.400;5.494;2024-01-16T13:32:41;6.13;;;3.20;;
47896;SDS011;39629;51.400;5.494;2024-01-16T13:37:43;10.52;;;3.10;;
47896;SDS011;39629;51.400;5.494;2024-01-16T13:42:44;7.85;;;2.70;;
47896;SDS011;39629;51.400;5.494;2024-01-16T13:47:47;9.20;;;2.50;;
47896;SDS011;39629;51.400;5.494;2024-01-16T13:52:49;8.10;;;2.80;;
47896;SDS011;39629;51.400;5.494;2024-01-16T13:57:51;7.80;;;3.17;;
47896;SDS011;39629;51.400;5.494;2024-01-16T14:02:54;6.63;;;2.20;;
47896;SDS011;39629;51.400;5.494;2024-01-16T14:07:56;11.02;;;3.00;;
47896;SDS011;39629;51.400;5.494;2024-01-16T14:12:57;6.00;;;2.72;;
47896;SDS011;39629;51.400;5.494;2024-01-16T14:18:00;6.85;;;2.95;;
47896;SDS011;39629;51.400;5.494;2024-01-16T14:23:03;7.32;;;2.80;;
47896;SDS011;39629;51.400;5.494;2024-01-16T14:28:05;6.68;;;2.60;;
47896;SDS011;39629;51.400;5.494;2024-01-16T14:33:08;9.20;;;2.63;;
47896;SDS011;39629;51.400;5.494;2024-01-16T14:38:09;6.35;;;2.25;;
47896;SDS011;39629;51.400;5.494;2024-01-16T14:43:11;6.13;;;3.10;;
47896;SDS011;39629;51.400;5.494;2024-01-16T14:48:15;7.15;;;2.65;;
47896;SDS011;39629;51.400;5.494;2024-01-16T17:42:56;14.15;;;4.70;;
47896;SDS011;39629;51.400;5.494;2024-01-16T17:47:58;12.77;;;4.97;;
47896;SDS011;39629;51.400;5.494;2024-01-16T17:53:00;13.55;;;4.32;;
47896;SDS011;39629;51.400;5.494;2024-01-16T17:58:06;9.00;;;4.07;;
47896;SDS011;39629;51.400;5.494;2024-01-16T18:03:10;10.18;;;3.65;;
47896;SDS011;39629;51.400;5.494;2024-01-16T18:08:12;9.60;;;3.80;;
47896;SDS011;39629;51.400;5.494;2024-01-16T18:13:16;7.05;;;3.55;;
47896;SDS011;39629;51.400;5.494;2024-01-16T18:18:17;6.43;;;3.10;;
47896;SDS011;39629;51.400;5.494;2024-01-16T18:23:21;10.37;;;3.63;;
47896;SDS011;39629;51.400;5.494;2024-01-16T18:28:24;8.50;;;3.85;;
47896;SDS011;39629;51.400;5.494;2024-01-16T18:33:26;9.45;;;4.10;;
47896;SDS011;39629;51.400;5.494;2024-01-16T18:38:28;10.27;;;5.35;;
47896;SDS011;39629;51.400;5.494;2024-01-16T18:43:31;10.57;;;4.90;;
47896;SDS011;39629;51.400;5.494;2024-01-16T18:48:33;8.30;;;3.90;;
47896;SDS011;39629;51.400;5.494;2024-01-16T18:53:34;11.68;;;4.65;;
47896;SDS011;39629;51.400;5.494;2024-01-16T18:58:37;14.93;;;4.68;;
47896;SDS011;39629;51.400;5.494;2024-01-16T19:03:39;13.18;;;4.60;;
47896;SDS011;39629;51.400;5.494;2024-01-16T19:08:41;10.18;;;4.35;;
47896;SDS011;39629;51.400;5.494;2024-01-16T19:13:44;10.25;;;5.00;;
47896;SDS011;39629;51.400;5.494;2024-01-16T19:18:47;13.02;;;5.63;;
47896;SDS011;39629;51.400;5.494;2024-01-16T19:23:49;12.43;;;5.03;;
47896;SDS011;39629;51.400;5.494;2024-01-16T19:28:53;10.98;;;5.22;;
47896;SDS011;39629;51.400;5.494;2024-01-16T19:33:54;12.25;;;5.40;;
47896;SDS011;39629;51.400;5.494;2024-01-16T19:38:56;14.40;;;5.60;;
47896;SDS011;39629;51.400;5.494;2024-01-16T19:44:01;10.73;;;4.82;;
47896;SDS011;39629;51.400;5.494;2024-01-16T19:49:03;13.50;;;5.57;;
47896;SDS011;39629;51.400;5.494;2024-01-16T19:54:08;15.27;;;5.55;;
47896;SDS011;39629;51.400;5.494;2024-01-16T19:59:12;11.75;;;5.32;;
47896;SDS011;39629;51.400;5.494;2024-01-16T20:04:14;19.52;;;5.63;;
47896;SDS011;39629;51.400;5.494;2024-01-16T20:09:16;19.20;;;5.75;;
47896;SDS011;39629;51.400;5.494;2024-01-16T20:14:20;16.75;;;5.53;;
47896;SDS011;39629;51.400;5.494;2024-01-16T20:19:22;13.23;;;6.30;;
47896;SDS011;39629;51.400;5.494;2024-01-16T20:24:23;12.07;;;5.75;;
47896;SDS011;39629;51.400;5.494;2024-01-16T20:29:27;19.85;;;6.60;;
47896;SDS011;39629;51.400;5.494;2024-01-16T20:34:29;13.93;;;6.45;;
47896;SDS011;39629;51.400;5.494;2024-01-16T20:39:31;17.25;;;7.22;;
47896;SDS011;39629;51.400;5.494;2024-01-16T20:44:35;16.75;;;6.25;;
47896;SDS011;39629;51.400;5.494;2024-01-16T20:49:37;17.27;;;7.28;;
47896;SDS011;39629;51.400;5.494;2024-01-16T20:54:39;17.45;;;7.97;;
47896;SDS011;39629;51.400;5.494;2024-01-16T20:59:42;13.67;;;6.10;;
47896;SDS011;39629;51.400;5.494;2024-01-16T21:04:44;17.03;;;6.47;;
47896;SDS011;39629;51.400;5.494;2024-01-16T21:09:46;22.52;;;7.68;;
47896;SDS011;39629;51.400;5.494;2024-01-16T21:14:50;20.80;;;7.88;;
47896;SDS011;39629;51.400;5.494;2024-01-16T21:19:51;15.15;;;7.65;;
47896;SDS011;39629;51.400;5.494;2024-01-16T21:24:53;15.35;;;7.43;;
47896;SDS011;39629;51.400;5.494;2024-01-16T21:29:56;13.60;;;6.07;;
47896;SDS011;39629;51.400;5.494;2024-01-16T21:34:58;16.63;;;7.28;;
47896;SDS011;39629;51.400;5.494;2024-01-16T21:40:00;16.10;;;7.20;;
47896;SDS011;39629;51.400;5.494;2024-01-16T21:45:03;26.17;;;10.38;;
47896;SDS011;39629;51.400;5.494;2024-01-16T21:50:06;21.15;;;8.05;;
47896;SDS011;39629;51.400;5.494;2024-01-16T21:55:08;14.38;;;7.15;;
47896;SDS011;39629;51.400;5.494;2024-01-16T22:00:12;14.27;;;7.25;;
47896;SDS011;39629;51.400;5.494;2024-01-16T22:05:14;20.02;;;8.13;;
47896;SDS011;39629;51.400;5.494;2024-01-16T22:10:16;16.73;;;6.97;;
47896;SDS011;39629;51.400;5.494;2024-01-16T22:15:19;17.27;;;6.97;;
47896;SDS011;39629;51.400;5.494;2024-01-16T22:20:21;17.30;;;6.82;;
47896;SDS011;39629;51.400;5.494;2024-01-16T22:25:23;12.63;;;5.93;;
47896;SDS011;39629;51.400;5.494;2024-01-16T22:30:26;16.25;;;6.20;;
47896;SDS011;39629;51.400;5.494;2024-01-16T22:35:28;15.82;;;6.70;;
47896;SDS011;39629;51.400;5.494;2024-01-16T22:40:30;16.65;;;6.00;;
47896;SDS011;39629;51.400;5.494;2024-01-16T22:45:33;10.90;;;5.90;;
47896;SDS011;39629;51.400;5.494;2024-01-16T22:50:35;13.02;;;6.38;;
47896;SDS011;39629;51.400;5.494;2024-01-16T22:55:37;18.10;;;6.75;;
47896;SDS011;39629;51.400;5.494;2024-01-16T23:00:40;16.15;;;6.32;;
47896;SDS011;39629;51.400;5.494;2024-01-16T23:05:43;12.20;;;6.40;;
47896;SDS011;39629;51.400;5.494;2024-01-16T23:10:45;13.40;;;5.75;;
47896;SDS011;39629;51.400;5.494;2024-01-16T23:15:48;15.93;;;6.25;;
47896;SDS011;39629;51.400;5.494;2024-01-16T23:20:52;14.40;;;6.05;;
47896;SDS011;39629;51.400;5.494;2024-01-16T23:25:53;14.25;;;5.63;;
47896;SDS011;39629;51.400;5.494;2024-01-16T23:30:56;18.27;;;5.95;;
47896;SDS011;39629;51.400;5.494;2024-01-16T23:35:58;11.85;;;5.53;;
47896;SDS011;39629;51.400;5.494;2024-01-16T23:41:00;13.07;;;5.63;;
47896;SDS011;39629;51.400;5.494;2024-01-16T23:46:06;9.93;;;5.65;;
47896;SDS011;39629;51.400;5.494;2024-01-16T23:51:07;14.65;;;5.72;;
47896;SDS011;39629;51.400;5.494;2024-01-16T23:56:09;12.38;;;5.00;;
